sensor_id;sensor_type;location;lat;lon;timestamp;pressure;altitude;pressure_sealevel;temperature;humidity
40946;BME280;55635;50.264;11.918;2024-02-15T00:02:14;96022.84;;;11.17;100.00
40946;BME280;55635;50.264;11.918;2024-02-15T00:04:55;96023.41;;;11.12;100.00
40946;BME280;55635;50.264;11.918;2024-02-15T00:07:37;96026.09;;;11.27;100.00
40946;BME280;55635;50.264;11.918;2024-02-15T00:10:18;96022.88;;;11.31;100.00
40946;BME280;55635;50.264;11.918;2024-02-15T00:13:02;96006.97;;;11.31;100.00
40946;BME280;55635;50.264;11.918;2024-02-15T00:15:43;96008.59;;;11.18;100.00
40946;BME280;55635;50.264;11.918;2024-02-15T00:18:24;96005.97;;;11.47;100.00
40946;BME280;55635;50.264;11.918;2024-02-15T00:21:05;96011.59;;;11.52;100.00
40946;BME280;55635;50.264;11.918;2024-02-15T00:23:46;96008.88;;;11.23;100.00
40946;BME280;55635;50.264;11.918;2024-02-15T00:26:28;96006.44;;;11.36;100.00
40946;BME280;55635;50.264;11.918;2024-02-15T00:29:09;95996.63;;;11.22;100.00
40946;BME280;55635;50.264;11.918;2024-02-15T00:31:50;95998.63;;;11.34;100.00
40946;BME280;55635;50.264;11.918;2024-02-15T00:34:32;96004.81;;;11.64;100.00
40946;BME280;55635;50.264;11.918;2024-02-15T00:37:12;95999.88;;;11.46;100.00
40946;BME280;55635;50.264;11.918;2024-02-15T00:39:53;96008.25;;;11.35;100.00
40946;BME280;55635;50.264;11.918;2024-02-15T00:42:34;96005.03;;;11.25;100.00
40946;BME280;55635;50.264;11.918;2024-02-15T00:45:16;96009.31;;;11.49;100.00
40946;BME280;55635;50.264;11.918;2024-02-15T00:47:57;96015.13;;;11.44;100.00
40946;BME280;55635;50.264;11.918;2024-02-15T00:50:38;96009.72;;;11.38;100.00
40946;BME280;55635;50.264;11.918;2024-02-15T00:53:20;96008.09;;;11.37;100.00
40946;BME280;55635;50.264;11.918;2024-02-15T00:56:01;96004.78;;;11.35;100.00
40946;BME280;55635;50.264;11.918;2024-02-15T00:58:42;96005.25;;;11.38;100.00
40946;BME280;55635;50.264;11.918;2024-02-15T01:01:24;96004.25;;;11.39;100.00
40946;BME280;55635;50.264;11.918;2024-02-15T01:04:05;96003.25;;;11.40;100.00
40946;BME280;55635;50.264;11.918;2024-02-15T01:06:46;95997.63;;;11.35;100.00
40946;BME280;55635;50.264;11.918;2024-02-15T01:09:29;96002.53;;;11.46;100.00
40946;BME280;55635;50.264;11.918;2024-02-15T01:12:10;95994.81;;;11.37;100.00
40946;BME280;55635;50.264;11.918;2024-02-15T01:14:51;96005.44;;;11.52;100.00
40946;BME280;55635;50.264;11.918;2024-02-15T01:17:32;96003.06;;;11.57;100.00
40946;BME280;55635;50.264;11.918;2024-02-15T01:20:13;95992.53;;;11.48;100.00
40946;BME280;55635;50.264;11.918;2024-02-15T01:22:54;95996.03;;;11.64;100.00
40946;BME280;55635;50.264;11.918;2024-02-15T01:25:36;95992.53;;;11.63;100.00
40946;BME280;55635;50.264;11.918;2024-02-15T01:28:17;95983.38;;;11.51;100.00
40946;BME280;55635;50.264;11.918;2024-02-15T01:30:58;95989.88;;;11.48;100.00
40946;BME280;55635;50.264;11.918;2024-02-15T01:33:43;95990.00;;;11.55;100.00
40946;BME280;55635;50.264;11.918;2024-02-15T01:36:24;95985.09;;;11.29;100.00
40946;BME280;55635;50.264;11.918;2024-02-15T01:39:07;95983.00;;;11.25;100.00
40946;BME280;55635;50.264;11.918;2024-02-15T01:41:49;95993.13;;;11.21;100.00
40946;BME280;55635;50.264;11.918;2024-02-15T01:44:31;95992.41;;;11.27;100.00
40946;BME280;55635;50.264;11.918;2024-02-15T01:47:13;95995.28;;;11.40;100.00
40946;BME280;55635;50.264;11.918;2024-02-15T01:49:54;95989.66;;;11.35;100.00
40946;BME280;55635;50.264;11.918;2024-02-15T01:52:35;95991.69;;;11.33;100.00
40946;BME280;55635;50.264;11.918;2024-02-15T01:55:17;95987.53;;;11.16;100.00
40946;BME280;55635;50.264;11.918;2024-02-15T01:58:00;95977.09;;;11.15;100.00
40946;BME280;55635;50.264;11.918;2024-02-15T02:00:41;95972.53;;;11.23;100.00
40946;BME280;55635;50.264;11.918;2024-02-15T02:03:23;95983.38;;;11.51;100.00
40946;BME280;55635;50.264;11.918;2024-02-15T02:06:04;95980.81;;;11.43;100.00
40946;BME280;55635;50.264;11.918;2024-02-15T02:08:45;95979.88;;;11.36;100.00
40946;BME280;55635;50.264;11.918;2024-02-15T02:11:26;95971.75;;;11.37;100.00
40946;BME280;55635;50.264;11.918;2024-02-15T02:14:07;95981.66;;;11.58;100.00
40946;BME280;55635;50.264;11.918;2024-02-15T02:16:49;95976.09;;;11.82;100.00
40946;BME280;55635;50.264;11.918;2024-02-15T02:19:30;95965.00;;;11.50;100.00
40946;BME280;55635;50.264;11.918;2024-02-15T02:22:12;95982.69;;;11.34;100.00
40946;BME280;55635;50.264;11.918;2024-02-15T02:25:07;95953.56;;;11.12;100.00
40946;BME280;55635;50.264;11.918;2024-02-15T02:27:49;95984.66;;;11.40;100.00
40946;BME280;55635;50.264;11.918;2024-02-15T02:30:30;95985.03;;;11.37;100.00
40946;BME280;55635;50.264;11.918;2024-02-15T02:33:12;95973.59;;;11.00;100.00
40946;BME280;55635;50.264;11.918;2024-02-15T02:36:02;95986.06;;;11.14;100.00
40946;BME280;55635;50.264;11.918;2024-02-15T02:38:44;95985.31;;;11.42;100.00
40946;BME280;55635;50.264;11.918;2024-02-15T02:41:27;95974.09;;;11.32;100.00
40946;BME280;55635;50.264;11.918;2024-02-15T02:44:09;95981.31;;;11.09;100.00
40946;BME280;55635;50.264;11.918;2024-02-15T02:46:50;95985.19;;;10.99;100.00
40946;BME280;55635;50.264;11.918;2024-02-15T02:49:31;95985.78;;;10.86;100.00
40946;BME280;55635;50.264;11.918;2024-02-15T02:52:12;95984.78;;;11.10;100.00
40946;BME280;55635;50.264;11.918;2024-02-15T02:54:53;95981.53;;;10.77;100.00
40946;BME280;55635;50.264;11.918;2024-02-15T02:57:35;95983.31;;;10.84;100.00
40946;BME280;55635;50.264;11.918;2024-02-15T03:00:20;95984.09;;;10.93;100.00
40946;BME280;55635;50.264;11.918;2024-02-15T03:03:05;95993.69;;;10.94;100.00
40946;BME280;55635;50.264;11.918;2024-02-15T03:05:46;95996.41;;;10.86;100.00
40946;BME280;55635;50.264;11.918;2024-02-15T03:08:27;95988.44;;;11.09;100.00
40946;BME280;55635;50.264;11.918;2024-02-15T03:11:08;95993.97;;;11.22;100.00
40946;BME280;55635;50.264;11.918;2024-02-15T03:13:49;95992.03;;;11.16;100.00
40946;BME280;55635;50.264;11.918;2024-02-15T03:16:32;95997.22;;;11.09;100.00
40946;BME280;55635;50.264;11.918;2024-02-15T03:19:13;95994.81;;;11.00;100.00
40946;BME280;55635;50.264;11.918;2024-02-15T03:21:54;95996.91;;;11.04;100.00
40946;BME280;55635;50.264;11.918;2024-02-15T03:24:36;95992.16;;;10.77;100.00
40946;BME280;55635;50.264;11.918;2024-02-15T03:27:18;95998.25;;;10.85;100.00
40946;BME280;55635;50.264;11.918;2024-02-15T03:29:59;95997.63;;;10.98;100.00
40946;BME280;55635;50.264;11.918;2024-02-15T03:32:41;95990.44;;;11.07;100.00
40946;BME280;55635;50.264;11.918;2024-02-15T03:35:24;95998.69;;;10.89;100.00
40946;BME280;55635;50.264;11.918;2024-02-15T03:38:06;96001.06;;;11.07;100.00
40946;BME280;55635;50.264;11.918;2024-02-15T03:40:47;95983.00;;;11.02;100.00
40946;BME280;55635;50.264;11.918;2024-02-15T03:43:28;95997.41;;;10.85;100.00
40946;BME280;55635;50.264;11.918;2024-02-15T03:46:09;96005.06;;;10.80;100.00
40946;BME280;55635;50.264;11.918;2024-02-15T03:48:53;95992.28;;;10.61;100.00
40946;BME280;55635;50.264;11.918;2024-02-15T03:51:37;95999.94;;;10.78;100.00
40946;BME280;55635;50.264;11.918;2024-02-15T03:54:18;96003.25;;;10.80;100.00
40946;BME280;55635;50.264;11.918;2024-02-15T03:56:59;96002.00;;;10.91;100.00
40946;BME280;55635;50.264;11.918;2024-02-15T03:59:40;96002.97;;;10.75;100.00
40946;BME280;55635;50.264;11.918;2024-02-15T04:02:24;96006.66;;;10.89;100.00
40946;BME280;55635;50.264;11.918;2024-02-15T04:05:08;95999.56;;;11.04;100.00
40946;BME280;55635;50.264;11.918;2024-02-15T04:07:50;96005.03;;;10.88;100.00
40946;BME280;55635;50.264;11.918;2024-02-15T04:10:32;96011.84;;;11.05;100.00
40946;BME280;55635;50.264;11.918;2024-02-15T04:13:12;96009.97;;;11.28;100.00
40946;BME280;55635;50.264;11.918;2024-02-15T04:15:54;96009.59;;;11.17;100.00
40946;BME280;55635;50.264;11.918;2024-02-15T04:18:35;96010.13;;;11.12;100.00
40946;BME280;55635;50.264;11.918;2024-02-15T04:21:18;96012.63;;;11.28;100.00
40946;BME280;55635;50.264;11.918;2024-02-15T04:24:00;96016.41;;;11.34;100.00
40946;BME280;55635;50.264;11.918;2024-02-15T04:26:42;96016.91;;;11.15;100.00
40946;BME280;55635;50.264;11.918;2024-02-15T04:29:23;96018.53;;;11.53;100.00
40946;BME280;55635;50.264;11.918;2024-02-15T04:32:04;96019.19;;;11.40;100.00
40946;BME280;55635;50.264;11.918;2024-02-15T04:34:45;96023.94;;;11.60;100.00
40946;BME280;55635;50.264;11.918;2024-02-15T04:37:27;96034.94;;;11.57;100.00
40946;BME280;55635;50.264;11.918;2024-02-15T04:40:12;96036.47;;;11.74;100.00
40946;BME280;55635;50.264;11.918;2024-02-15T04:42:54;96024.88;;;11.52;100.00
40946;BME280;55635;50.264;11.918;2024-02-15T04:45:35;96003.88;;;11.28;100.00
40946;BME280;55635;50.264;11.918;2024-02-15T04:48:16;96000.06;;;11.22;100.00
40946;BME280;55635;50.264;11.918;2024-02-15T04:50:59;96000.44;;;11.19;100.00
40946;BME280;55635;50.264;11.918;2024-02-15T04:53:40;96006.78;;;10.96;100.00
40946;BME280;55635;50.264;11.918;2024-02-15T04:56:22;96018.00;;;11.20;100.00
40946;BME280;55635;50.264;11.918;2024-02-15T04:59:04;96017.47;;;10.87;100.00
40946;BME280;55635;50.264;11.918;2024-02-15T05:01:45;96019.28;;;10.87;100.00
40946;BME280;55635;50.264;11.918;2024-02-15T05:04:26;96008.25;;;10.98;100.00
40946;BME280;55635;50.264;11.918;2024-02-15T05:07:10;96022.88;;;11.31;100.00
40946;BME280;55635;50.264;11.918;2024-02-15T05:09:51;96019.38;;;11.54;100.00
40946;BME280;55635;50.264;11.918;2024-02-15T05:12:36;96025.72;;;11.30;100.00
40946;BME280;55635;50.264;11.918;2024-02-15T05:15:17;96014.41;;;11.36;100.00
40946;BME280;55635;50.264;11.918;2024-02-15T05:17:59;96020.09;;;11.10;100.00
40946;BME280;55635;50.264;11.918;2024-02-15T05:20:42;96019.72;;;11.36;100.00
40946;BME280;55635;50.264;11.918;2024-02-15T05:23:23;96022.03;;;11.16;100.00
40946;BME280;55635;50.264;11.918;2024-02-15T05:26:04;96015.28;;;11.28;100.00
40946;BME280;55635;50.264;11.918;2024-02-15T05:28:45;96015.88;;;11.53;100.00
40946;BME280;55635;50.264;11.918;2024-02-15T05:31:26;96019.72;;;11.51;100.00
40946;BME280;55635;50.264;11.918;2024-02-15T05:34:09;96014.78;;;11.47;100.00
40946;BME280;55635;50.264;11.918;2024-02-15T05:36:52;96013.94;;;11.70;100.00
40946;BME280;55635;50.264;11.918;2024-02-15T05:39:33;96008.06;;;11.74;100.00
40946;BME280;55635;50.264;11.918;2024-02-15T05:42:14;96009.53;;;11.77;100.00
40946;BME280;55635;50.264;11.918;2024-02-15T05:44:58;96009.09;;;11.73;100.00
40946;BME280;55635;50.264;11.918;2024-02-15T05:47:55;96011.09;;;11.86;100.00
40946;BME280;55635;50.264;11.918;2024-02-15T05:50:36;95998.63;;;11.72;100.00
40946;BME280;55635;50.264;11.918;2024-02-15T05:53:17;96003.38;;;12.06;100.00
40946;BME280;55635;50.264;11.918;2024-02-15T05:55:58;95992.41;;;11.94;100.00
40946;BME280;55635;50.264;11.918;2024-02-15T05:58:39;96004.56;;;12.03;100.00
40946;BME280;55635;50.264;11.918;2024-02-15T06:01:20;96001.84;;;11.82;100.00
40946;BME280;55635;50.264;11.918;2024-02-15T06:04:02;96011.81;;;11.94;100.00
40946;BME280;55635;50.264;11.918;2024-02-15T06:06:45;96003.78;;;11.73;100.00
40946;BME280;55635;50.264;11.918;2024-02-15T06:09:29;96002.97;;;11.50;100.00
40946;BME280;55635;50.264;11.918;2024-02-15T06:12:14;96012.34;;;11.23;100.00
40946;BME280;55635;50.264;11.918;2024-02-15T06:14:55;96001.59;;;11.02;100.00
40946;BME280;55635;50.264;11.918;2024-02-15T06:17:37;96005.75;;;11.19;100.00
40946;BME280;55635;50.264;11.918;2024-02-15T06:20:18;96007.38;;;11.06;100.00
40946;BME280;55635;50.264;11.918;2024-02-15T06:23:01;96030.03;;;11.31;100.00
40946;BME280;55635;50.264;11.918;2024-02-15T06:25:47;96014.56;;;11.34;100.00
40946;BME280;55635;50.264;11.918;2024-02-15T06:28:31;96032.94;;;11.21;100.00
40946;BME280;55635;50.264;11.918;2024-02-15T06:31:31;96029.91;;;11.10;100.00
40946;BME280;55635;50.264;11.918;2024-02-15T06:34:31;96041.75;;;11.22;100.00
40946;BME280;55635;50.264;11.918;2024-02-15T06:37:38;96035.66;;;11.51;100.00
40946;BME280;55635;50.264;11.918;2024-02-15T06:40:37;96039.94;;;11.37;100.00
40946;BME280;55635;50.264;11.918;2024-02-15T06:43:18;96047.94;;;11.52;100.00
40946;BME280;55635;50.264;11.918;2024-02-15T06:45:59;96045.31;;;11.29;100.00
40946;BME280;55635;50.264;11.918;2024-02-15T06:48:43;96035.47;;;11.37;100.00
40946;BME280;55635;50.264;11.918;2024-02-15T06:51:25;96053.94;;;11.31;100.00
40946;BME280;55635;50.264;11.918;2024-02-15T06:54:06;96048.50;;;11.62;100.00
40946;BME280;55635;50.264;11.918;2024-02-15T06:56:47;96056.63;;;11.23;100.00
40946;BME280;55635;50.264;11.918;2024-02-15T06:59:28;96056.97;;;11.42;100.00
40946;BME280;55635;50.264;11.918;2024-02-15T07:02:09;96061.97;;;11.60;100.00
40946;BME280;55635;50.264;11.918;2024-02-15T07:04:53;96060.09;;;11.46;100.00
40946;BME280;55635;50.264;11.918;2024-02-15T07:07:35;96057.47;;;11.23;100.00
40946;BME280;55635;50.264;11.918;2024-02-15T07:10:16;96062.25;;;11.05;100.00
40946;BME280;55635;50.264;11.918;2024-02-15T07:13:00;96057.19;;;10.96;100.00
40946;BME280;55635;50.264;11.918;2024-02-15T07:15:41;96052.34;;;10.99;100.00
40946;BME280;55635;50.264;11.918;2024-02-15T07:18:23;96052.00;;;11.02;100.00
40946;BME280;55635;50.264;11.918;2024-02-15T07:21:05;96054.06;;;11.15;100.00
40946;BME280;55635;50.264;11.918;2024-02-15T07:23:55;96051.09;;;11.32;100.00
40946;BME280;55635;50.264;11.918;2024-02-15T07:26:36;96038.97;;;11.15;100.00
40946;BME280;55635;50.264;11.918;2024-02-15T07:29:17;96050.69;;;11.58;100.00
40946;BME280;55635;50.264;11.918;2024-02-15T07:32:01;96052.16;;;11.61;100.00
40946;BME280;55635;50.264;11.918;2024-02-15T07:34:44;96049.25;;;11.56;100.00
40946;BME280;55635;50.264;11.918;2024-02-15T07:37:26;96060.00;;;11.39;100.00
40946;BME280;55635;50.264;11.918;2024-02-15T07:40:07;96044.56;;;11.20;100.00
40946;BME280;55635;50.264;11.918;2024-02-15T07:42:50;96055.03;;;11.36;100.00
40946;BME280;55635;50.264;11.918;2024-02-15T07:45:33;96047.00;;;11.44;100.00
40946;BME280;55635;50.264;11.918;2024-02-15T07:48:17;96056.00;;;11.43;100.00
40946;BME280;55635;50.264;11.918;2024-02-15T07:50:57;96052.78;;;11.48;100.00
40946;BME280;55635;50.264;11.918;2024-02-15T07:53:40;96044.38;;;11.59;100.00
40946;BME280;55635;50.264;11.918;2024-02-15T07:56:21;96048.91;;;11.36;100.00
40946;BME280;55635;50.264;11.918;2024-02-15T07:59:02;96041.31;;;11.33;100.00
40946;BME280;55635;50.264;11.918;2024-02-15T08:01:44;96045.56;;;11.57;100.00
40946;BME280;55635;50.264;11.918;2024-02-15T08:04:27;96041.19;;;11.64;100.00
40946;BME280;55635;50.264;11.918;2024-02-15T08:07:09;96022.13;;;11.60;100.00
40946;BME280;55635;50.264;11.918;2024-02-15T08:09:51;96025.03;;;11.51;100.00
40946;BME280;55635;50.264;11.918;2024-02-15T08:12:32;96033.91;;;12.10;100.00
40946;BME280;55635;50.264;11.918;2024-02-15T08:15:13;96033.72;;;11.96;100.00
40946;BME280;55635;50.264;11.918;2024-02-15T08:17:54;96033.16;;;11.86;100.00
40946;BME280;55635;50.264;11.918;2024-02-15T08:20:36;96035.28;;;11.91;100.00
40946;BME280;55635;50.264;11.918;2024-02-15T08:23:17;96028.38;;;12.11;100.00
40946;BME280;55635;50.264;11.918;2024-02-15T08:25:58;96033.63;;;11.75;100.00
40946;BME280;55635;50.264;11.918;2024-02-15T08:28:39;96041.63;;;12.05;100.00
40946;BME280;55635;50.264;11.918;2024-02-15T08:31:21;96026.84;;;11.87;100.00
40946;BME280;55635;50.264;11.918;2024-02-15T08:34:05;96031.81;;;12.20;100.00
40946;BME280;55635;50.264;11.918;2024-02-15T08:36:51;96021.56;;;12.52;100.00
40946;BME280;55635;50.264;11.918;2024-02-15T08:39:32;96019.88;;;11.86;100.00
40946;BME280;55635;50.264;11.918;2024-02-15T08:42:13;96021.09;;;11.98;100.00
40946;BME280;55635;50.264;11.918;2024-02-15T08:44:55;96022.38;;;11.88;100.00
40946;BME280;55635;50.264;11.918;2024-02-15T08:47:41;96027.56;;;11.96;100.00
40946;BME280;55635;50.264;11.918;2024-02-15T08:50:22;96032.53;;;11.84;100.00
40946;BME280;55635;50.264;11.918;2024-02-15T08:53:04;96024.38;;;11.86;100.00
40946;BME280;55635;50.264;11.918;2024-02-15T08:55:48;96032.78;;;11.75;100.00
40946;BME280;55635;50.264;11.918;2024-02-15T08:58:30;96037.16;;;11.68;100.00
40946;BME280;55635;50.264;11.918;2024-02-15T09:01:11;96037.94;;;11.91;100.00
40946;BME280;55635;50.264;11.918;2024-02-15T09:03:54;96038.94;;;11.75;100.00
40946;BME280;55635;50.264;11.918;2024-02-15T09:06:35;96041.13;;;11.86;100.00
40946;BME280;55635;50.264;11.918;2024-02-15T09:09:16;96028.50;;;11.88;100.00
40946;BME280;55635;50.264;11.918;2024-02-15T09:12:00;96018.97;;;11.79;100.00
40946;BME280;55635;50.264;11.918;2024-02-15T09:14:41;96026.22;;;12.00;100.00
40946;BME280;55635;50.264;11.918;2024-02-15T09:17:22;96024.19;;;11.73;100.00
40946;BME280;55635;50.264;11.918;2024-02-15T09:20:13;96028.50;;;11.88;100.00
40946;BME280;55635;50.264;11.918;2024-02-15T09:23:06;96034.28;;;11.92;100.00
40946;BME280;55635;50.264;11.918;2024-02-15T09:25:50;96032.69;;;12.41;100.00
40946;BME280;55635;50.264;11.918;2024-02-15T09:28:34;96027.22;;;11.84;100.00
40946;BME280;55635;50.264;11.918;2024-02-15T09:31:16;96031.97;;;12.18;100.00
40946;BME280;55635;50.264;11.918;2024-02-15T09:33:57;96034.38;;;11.98;100.00
40946;BME280;55635;50.264;11.918;2024-02-15T09:36:39;96028.94;;;11.77;100.00
40946;BME280;55635;50.264;11.918;2024-02-15T09:39:20;96034.06;;;12.08;100.00
40946;BME280;55635;50.264;11.918;2024-02-15T09:42:02;96029.19;;;12.41;100.00
40946;BME280;55635;50.264;11.918;2024-02-15T09:44:43;96021.81;;;12.07;100.00
40946;BME280;55635;50.264;11.918;2024-02-15T09:47:25;96024.25;;;12.38;100.00
40946;BME280;55635;50.264;11.918;2024-02-15T09:50:12;96029.13;;;12.34;100.00
40946;BME280;55635;50.264;11.918;2024-02-15T09:52:57;96016.75;;;12.27;100.00
40946;BME280;55635;50.264;11.918;2024-02-15T09:55:40;96010.47;;;12.49;100.00
40946;BME280;55635;50.264;11.918;2024-02-15T09:58:24;96003.19;;;11.78;100.00
40946;BME280;55635;50.264;11.918;2024-02-15T10:01:05;96022.72;;;11.70;100.00
40946;BME280;55635;50.264;11.918;2024-02-15T10:03:50;96014.72;;;12.14;100.00
40946;BME280;55635;50.264;11.918;2024-02-15T10:06:34;96017.09;;;12.24;100.00
40946;BME280;55635;50.264;11.918;2024-02-15T10:09:29;96001.78;;;12.40;100.00
40946;BME280;55635;50.264;11.918;2024-02-15T10:12:10;96012.59;;;12.39;100.00
40946;BME280;55635;50.264;11.918;2024-02-15T10:14:52;96012.56;;;12.03;100.00
40946;BME280;55635;50.264;11.918;2024-02-15T10:17:33;96011.56;;;12.54;100.00
40946;BME280;55635;50.264;11.918;2024-02-15T10:20:15;96002.44;;;12.64;100.00
40946;BME280;55635;50.264;11.918;2024-02-15T10:25:41;95992.56;;;13.00;100.00
40946;BME280;55635;50.264;11.918;2024-02-15T10:28:22;95988.69;;;12.81;100.00
40946;BME280;55635;50.264;11.918;2024-02-15T10:31:08;95981.38;;;12.83;100.00
40946;BME280;55635;50.264;11.918;2024-02-15T10:33:53;95992.56;;;12.57;100.00
40946;BME280;55635;50.264;11.918;2024-02-15T10:36:34;95990.13;;;12.98;100.00
40946;BME280;55635;50.264;11.918;2024-02-15T10:39:17;95978.66;;;12.77;100.00
40946;BME280;55635;50.264;11.918;2024-02-15T10:42:02;95974.06;;;12.92;100.00
40946;BME280;55635;50.264;11.918;2024-02-15T10:44:44;95976.38;;;13.16;100.00
40946;BME280;55635;50.264;11.918;2024-02-15T10:47:26;95965.94;;;13.15;100.00
40946;BME280;55635;50.264;11.918;2024-02-15T10:50:07;95963.56;;;13.26;100.00
40946;BME280;55635;50.264;11.918;2024-02-15T10:52:56;95959.78;;;12.93;100.00
40946;BME280;55635;50.264;11.918;2024-02-15T10:56:19;95958.34;;;13.18;100.00
40946;BME280;55635;50.264;11.918;2024-02-15T10:59:18;95943.88;;;13.06;100.00
40946;BME280;55635;50.264;11.918;2024-02-15T11:02:00;95950.81;;;13.49;100.00
40946;BME280;55635;50.264;11.918;2024-02-15T11:04:53;95950.41;;;13.52;99.87
40946;BME280;55635;50.264;11.918;2024-02-15T11:07:37;95953.56;;;13.97;98.06
40946;BME280;55635;50.264;11.918;2024-02-15T11:10:19;95945.53;;;13.56;99.24
40946;BME280;55635;50.264;11.918;2024-02-15T11:13:01;95934.91;;;12.86;100.00
40946;BME280;55635;50.264;11.918;2024-02-15T11:18:49;95936.44;;;12.95;100.00
40946;BME280;55635;50.264;11.918;2024-02-15T11:21:54;95926.66;;;13.23;100.00
40946;BME280;55635;50.264;11.918;2024-02-15T11:24:49;95937.31;;;13.02;100.00
40946;BME280;55635;50.264;11.918;2024-02-15T11:27:30;95933.72;;;12.67;100.00
40946;BME280;55635;50.264;11.918;2024-02-15T11:30:31;95918.75;;;12.87;100.00
40946;BME280;55635;50.264;11.918;2024-02-15T11:33:32;95920.34;;;13.31;100.00
40946;BME280;55635;50.264;11.918;2024-02-15T11:36:15;95923.81;;;13.03;100.00
40946;BME280;55635;50.264;11.918;2024-02-15T11:38:57;95941.19;;;13.21;100.00
40946;BME280;55635;50.264;11.918;2024-02-15T11:41:38;95933.94;;;13.36;100.00
40946;BME280;55635;50.264;11.918;2024-02-15T11:44:20;95933.56;;;13.80;98.96
40946;BME280;55635;50.264;11.918;2024-02-15T11:47:04;95922.69;;;13.13;99.85
40946;BME280;55635;50.264;11.918;2024-02-15T11:49:46;95919.72;;;14.04;97.39
40946;BME280;55635;50.264;11.918;2024-02-15T11:52:27;95919.13;;;14.49;95.12
40946;BME280;55635;50.264;11.918;2024-02-15T11:55:09;95914.56;;;14.43;94.48
40946;BME280;55635;50.264;11.918;2024-02-15T11:58:00;95921.38;;;14.52;94.19
40946;BME280;55635;50.264;11.918;2024-02-15T12:00:50;95907.28;;;14.98;92.72
40946;BME280;55635;50.264;11.918;2024-02-15T12:03:54;95909.34;;;14.22;92.47
40946;BME280;55635;50.264;11.918;2024-02-15T12:06:58;95907.25;;;14.11;93.38
40946;BME280;55635;50.264;11.918;2024-02-15T12:10:01;95905.66;;;14.23;94.18
40946;BME280;55635;50.264;11.918;2024-02-15T12:13:01;95898.00;;;14.67;93.18
40946;BME280;55635;50.264;11.918;2024-02-15T12:16:00;95893.06;;;14.64;91.76
40946;BME280;55635;50.264;11.918;2024-02-15T12:19:00;95876.63;;;14.48;92.96
40946;BME280;55635;50.264;11.918;2024-02-15T12:21:41;95880.75;;;14.63;91.73
40946;BME280;55635;50.264;11.918;2024-02-15T12:24:22;95885.69;;;14.93;90.10
40946;BME280;55635;50.264;11.918;2024-02-15T12:27:08;95883.63;;;15.21;89.88
40946;BME280;55635;50.264;11.918;2024-02-15T12:29:59;95884.63;;;14.48;90.74
40946;BME280;55635;50.264;11.918;2024-02-15T12:32:40;95887.50;;;14.40;93.52
40946;BME280;55635;50.264;11.918;2024-02-15T12:35:22;95877.91;;;14.91;92.12
40946;BME280;55635;50.264;11.918;2024-02-15T12:38:04;95870.06;;;15.22;89.77
40946;BME280;55635;50.264;11.918;2024-02-15T12:40:49;95875.81;;;14.93;89.91
40946;BME280;55635;50.264;11.918;2024-02-15T12:43:30;95880.38;;;14.80;91.77
40946;BME280;55635;50.264;11.918;2024-02-15T12:46:11;95851.78;;;14.87;90.31
40946;BME280;55635;50.264;11.918;2024-02-15T12:52:39;95857.94;;;16.04;86.58
40946;BME280;55635;50.264;11.918;2024-02-15T12:55:24;95866.75;;;15.27;87.79
40946;BME280;55635;50.264;11.918;2024-02-15T12:58:13;95864.09;;;15.14;89.19
40946;BME280;55635;50.264;11.918;2024-02-15T13:00:56;95864.09;;;15.53;87.09
40946;BME280;55635;50.264;11.918;2024-02-15T13:03:40;95861.66;;;15.06;86.81
40946;BME280;55635;50.264;11.918;2024-02-15T13:06:20;95858.16;;;15.12;88.85
40946;BME280;55635;50.264;11.918;2024-02-15T13:09:04;95851.94;;;15.57;88.90
40946;BME280;55635;50.264;11.918;2024-02-15T13:11:46;95848.94;;;15.01;88.77
40946;BME280;55635;50.264;11.918;2024-02-15T13:14:28;95846.03;;;14.96;88.55
40946;BME280;55635;50.264;11.918;2024-02-15T13:17:10;95832.94;;;15.78;86.52
40946;BME280;55635;50.264;11.918;2024-02-15T13:19:51;95831.97;;;16.11;85.10
40946;BME280;55635;50.264;11.918;2024-02-15T13:22:32;95822.34;;;16.34;82.88
40946;BME280;55635;50.264;11.918;2024-02-15T13:25:14;95819.66;;;16.03;82.91
40946;BME280;55635;50.264;11.918;2024-02-15T13:27:57;95808.59;;;16.62;82.68
40946;BME280;55635;50.264;11.918;2024-02-15T13:30:38;95819.22;;;16.75;81.03
40946;BME280;55635;50.264;11.918;2024-02-15T13:33:19;95812.81;;;16.76;81.43
40946;BME280;55635;50.264;11.918;2024-02-15T13:36:01;95811.06;;;16.88;80.09
40946;BME280;55635;50.264;11.918;2024-02-15T13:38:42;95808.56;;;16.69;80.12
40946;BME280;55635;50.264;11.918;2024-02-15T13:41:23;95808.03;;;16.54;81.14
40946;BME280;55635;50.264;11.918;2024-02-15T13:44:04;95814.13;;;15.41;85.32
40946;BME280;55635;50.264;11.918;2024-02-15T13:46:46;95813.63;;;14.80;88.83
40946;BME280;55635;50.264;11.918;2024-02-15T13:49:27;95807.63;;;15.10;88.33
40946;BME280;55635;50.264;11.918;2024-02-15T13:52:11;95822.94;;;15.41;87.28
40946;BME280;55635;50.264;11.918;2024-02-15T13:54:52;95819.97;;;14.79;87.37
40946;BME280;55635;50.264;11.918;2024-02-15T13:57:33;95814.00;;;15.03;86.11
40946;BME280;55635;50.264;11.918;2024-02-15T14:00:16;95796.53;;;15.00;87.69
40946;BME280;55635;50.264;11.918;2024-02-15T14:03:03;95803.03;;;15.44;86.52
40946;BME280;55635;50.264;11.918;2024-02-15T14:05:46;95809.00;;;15.26;87.14
40946;BME280;55635;50.264;11.918;2024-02-15T14:08:28;95806.50;;;15.44;85.98
40946;BME280;55635;50.264;11.918;2024-02-15T14:11:09;95814.22;;;15.78;85.24
40946;BME280;55635;50.264;11.918;2024-02-15T14:13:51;95801.16;;;16.02;85.08
40946;BME280;55635;50.264;11.918;2024-02-15T14:16:39;95796.22;;;16.05;83.43